Time;durP1;ratioP1;P1;durP2;ratioP2;P2;SDS_P1;SDS_P2;PMS_P1;PMS_P2;Temp;Humidity;BMP_temperature;BMP_pressure;BME280_temperature;BME280_humidity;BME280_pressure;Samples;Min_cycle;Max_cycle;Signal;HPM_P1;HPM_P2
2023/12/08 00:00:18;;;;;;;1.80;1.70;;;;;;;6.01;100.00;98153.25;5051627;28;20231;-57
2023/12/08 00:02:43;;;;;;;2.17;2.08;;;;;;;6.17;100.00;98173.81;5051676;28;20642;-57
2023/12/08 00:05:09;;;;;;;1.90;1.80;;;;;;;6.02;100.00;98144.66;5051501;28;20252;-57
2023/12/08 00:07:35;;;;;;;2.33;2.22;;;;;;;5.33;100.00;98029.53;5051475;28;20216;-57
2023/12/08 00:10:01;;;;;;;2.13;2.03;;;;;;;5.78;100.00;98104.84;5051528;28;20291;-57
2023/12/08 00:12:26;;;;;;;2.17;2.00;;;;;;;6.22;100.00;98162.38;5051361;28;20544;-56
2023/12/08 00:14:52;;;;;;;5.32;3.00;;;;;;;5.59;100.00;98059.78;5051454;28;20185;-57
2023/12/08 00:17:17;;;;;;;2.60;2.40;;;;;;;5.83;100.00;98112.38;5051193;28;20174;-57
2023/12/08 00:19:43;;;;;;;3.00;2.70;;;;;;;5.86;100.00;98110.47;5051388;28;20189;-57
2023/12/08 00:22:08;;;;;;;3.00;2.65;;;;;;;5.61;100.00;98087.00;5048385;28;20400;-57
2023/12/08 00:24:34;;;;;;;9.25;6.15;;;;;;;5.71;100.00;98108.66;5048645;28;20694;-57
2023/12/08 00:26:59;;;;;;;6.50;4.78;;;;;;;5.68;100.00;98113.16;5048814;28;20232;-57
2023/12/08 00:29:25;;;;;;;6.70;4.40;;;;;;;5.85;100.00;98161.88;5048879;28;20635;-57
2023/12/08 00:31:50;;;;;;;2.30;2.10;;;;;;;5.61;100.00;98122.94;5048735;28;20191;-56
2023/12/08 00:34:17;;;;;;;3.80;3.50;;;;;;;5.75;100.00;98155.53;5048867;28;20628;-56
2023/12/08 00:36:43;;;;;;;4.75;3.60;;;;;;;5.37;100.00;98095.97;5044725;28;20254;-57
2023/12/08 00:39:08;;;;;;;2.92;2.72;;;;;;;5.80;100.00;98169.84;5044055;28;20190;-57
2023/12/08 00:41:34;;;;;;;3.47;3.17;;;;;;;5.43;100.00;98103.34;5037235;28;20495;-57
2023/12/08 00:44:00;;;;;;;2.85;2.65;;;;;;;5.83;100.00;98173.97;5028759;28;20245;-57
2023/12/08 00:46:25;;;;;;;2.60;2.40;;;;;;;5.39;100.00;98168.56;5028463;28;20272;-57
2023/12/08 00:48:50;;;;;;;2.72;2.53;;;;;;;4.83;100.00;98091.16;5028772;28;20233;-57
2023/12/08 00:51:16;;;;;;;2.90;2.70;;;;;;;5.33;100.00;98176.59;5028518;28;20178;-57
2023/12/08 00:53:42;;;;;;;2.38;2.28;;;;;;;5.04;100.00;98120.84;5030081;28;20657;-56
2023/12/08 00:56:08;;;;;;;2.70;2.53;;;;;;;4.76;100.00;98079.56;5030953;28;20181;-57
2023/12/08 00:58:33;;;;;;;3.08;2.88;;;;;;;5.26;100.00;98152.13;5030718;28;20261;-57
2023/12/08 01:00:59;;;;;;;2.70;2.50;;;;;;;5.35;100.00;98153.41;5045233;28;20615;-57
2023/12/08 01:03:25;;;;;;;3.30;3.10;;;;;;;5.12;100.00;98141.78;5050576;28;20174;-57
2023/12/08 01:05:51;;;;;;;3.05;2.83;;;;;;;4.84;100.00;98097.13;5027927;28;20301;-57
2023/12/08 01:08:16;;;;;;;3.05;2.85;;;;;;;5.16;100.00;98152.69;5028106;28;20197;-57
2023/12/08 01:10:42;;;;;;;2.90;2.70;;;;;;;5.10;100.00;98138.47;5027353;28;20190;-58
2023/12/08 01:13:07;;;;;;;2.88;2.60;;;;;;;5.36;100.00;98194.38;5027912;28;20264;-58
2023/12/08 01:15:33;;;;;;;2.67;2.47;;;;;;;5.08;100.00;98188.16;5028051;28;20313;-57
2023/12/08 01:17:58;;;;;;;2.75;2.55;;;;;;;4.69;100.00;98105.56;5028326;28;20291;-57
2023/12/08 01:20:24;;;;;;;3.03;2.85;;;;;;;5.04;100.00;98143.06;5028485;28;20186;-57
2023/12/08 01:22:49;;;;;;;2.40;2.25;;;;;;;5.12;100.00;98144.34;5028443;28;20353;-57
2023/12/08 01:25:15;;;;;;;2.88;2.67;;;;;;;5.10;100.00;98133.34;5028423;28;20214;-57
2023/12/08 01:27:41;;;;;;;2.70;2.50;;;;;;;4.92;100.00;98100.94;5028694;28;20183;-57
2023/12/08 01:30:06;;;;;;;2.85;2.60;;;;;;;5.27;100.00;98169.22;5028443;28;20273;-57
2023/12/08 01:32:32;;;;;;;3.20;3.00;;;;;;;4.95;100.00;98117.91;5028648;28;20273;-57
2023/12/08 01:34:57;;;;;;;2.72;2.53;;;;;;;4.88;100.00;98109.69;5031279;28;20556;-57
2023/12/08 01:37:23;;;;;;;2.63;2.42;;;;;;;4.96;100.00;98128.06;5031670;28;20191;-57
2023/12/08 01:39:49;;;;;;;2.88;2.67;;;;;;;5.02;100.00;98153.38;5031486;28;20276;-58
2023/12/08 01:42:14;;;;;;;3.05;2.80;;;;;;;4.99;100.00;98137.34;5033174;28;20736;-58
2023/12/08 01:44:40;;;;;;;2.50;2.40;;;;;;;4.96;100.00;98133.19;5051158;28;20248;-57
2023/12/08 01:47:06;;;;;;;2.83;2.63;;;;;;;4.86;100.00;98098.69;5053779;28;20196;-58
2023/12/08 01:49:34;;;;;;;2.90;2.70;;;;;;;5.28;100.00;98160.59;5053295;28;20178;-58
2023/12/08 01:51:59;;;;;;;2.45;2.28;;;;;;;4.99;100.00;98102.28;5053291;28;20182;-58
2023/12/08 01:54:26;;;;;;;3.30;3.00;;;;;;;5.38;100.00;98146.41;5053588;28;20188;-57
2023/12/08 01:56:51;;;;;;;3.13;2.92;;;;;;;5.21;100.00;98128.50;5053866;28;20666;-57
2023/12/08 01:59:17;;;;;;;2.78;2.58;;;;;;;5.14;100.00;98139.13;5053941;28;20181;-57
2023/12/08 02:01:43;;;;;;;2.60;2.50;;;;;;;5.01;100.00;98126.09;5053865;28;20170;-57
2023/12/08 02:04:08;;;;;;;3.13;2.90;;;;;;;4.76;100.00;98089.81;5053535;28;20255;-57
2023/12/08 02:06:35;;;;;;;3.20;3.00;;;;;;;5.41;100.00;98186.44;5051180;28;20178;-57
2023/12/08 02:09:01;;;;;;;2.80;2.60;;;;;;;5.07;100.00;98136.03;5051244;28;20219;-57
2023/12/08 02:11:27;;;;;;;3.63;3.33;;;;;;;5.11;100.00;98145.25;5051216;28;20533;-57
2023/12/08 02:13:53;;;;;;;3.50;3.20;;;;;;;5.37;100.00;98175.50;5051221;28;20182;-57
2023/12/08 02:16:33;;;;;;;3.10;2.90;;;;;;;5.47;100.00;98194.66;5031004;28;20183;-57
2023/12/08 02:18:59;;;;;;;3.10;2.90;;;;;;;4.90;100.00;98100.19;5031395;28;20667;-57
2023/12/08 02:21:25;;;;;;;3.92;3.38;;;;;;;5.56;100.00;98186.50;5030946;28;20178;-57
2023/12/08 02:23:51;;;;;;;2.78;2.67;;;;;;;5.38;100.00;98131.00;5030926;28;20308;-57
2023/12/08 02:26:19;;;;;;;4.03;3.72;;;;;;;5.42;100.00;98132.50;5030921;28;20213;-58
2023/12/08 02:28:45;;;;;;;2.97;2.80;;;;;;;5.60;100.00;98193.09;5030900;28;20244;-57
2023/12/08 02:31:15;;;;;;;3.40;3.10;;;;;;;5.62;100.00;98199.00;5030797;28;20186;-57
2023/12/08 02:33:44;;;;;;;3.70;3.40;;;;;;;4.88;100.00;98130.19;5030826;28;20182;-57
2023/12/08 02:36:10;;;;;;;3.72;3.42;;;;;;;4.88;100.00;98109.69;5030695;28;20190;-57
2023/12/08 02:38:36;;;;;;;2.90;2.70;;;;;;;5.11;100.00;98157.22;5049342;28;20186;-58
2023/12/08 02:41:03;;;;;;;3.40;2.92;;;;;;;5.27;100.00;98187.16;5050632;28;20181;-57
2023/12/08 02:43:28;;;;;;;3.25;2.95;;;;;;;5.25;100.00;98195.84;5050452;28;20229;-57
2023/12/08 02:45:54;;;;;;;4.55;3.58;;;;;;;4.64;100.00;98110.09;5050235;28;20340;-57
2023/12/08 02:48:19;;;;;;;5.20;3.72;;;;;;;4.95;100.00;98157.19;5052365;28;20196;-58
2023/12/08 02:50:45;;;;;;;3.83;3.53;;;;;;;4.76;100.00;98100.06;5052959;28;20177;-57
2023/12/08 02:53:10;;;;;;;3.80;3.42;;;;;;;4.91;100.00;98108.72;5052843;28;20178;-58
2023/12/08 02:55:36;;;;;;;2.97;2.78;;;;;;;5.25;100.00;98162.50;5052859;28;20322;-57
2023/12/08 02:58:01;;;;;;;3.20;2.60;;;;;;;5.49;100.00;98205.66;5052815;28;20173;-57
2023/12/08 03:00:27;;;;;;;3.13;2.63;;;;;;;5.14;100.00;98146.81;5052762;28;20177;-57
2023/12/08 03:02:52;;;;;;;2.88;2.67;;;;;;;5.12;100.00;98159.72;5052735;28;20239;-57
2023/12/08 03:05:18;;;;;;;3.47;3.13;;;;;;;5.35;100.00;98197.84;5052612;28;20684;-57
2023/12/08 03:07:43;;;;;;;3.45;2.72;;;;;;;5.12;100.00;98162.28;5052622;28;20251;-57
2023/12/08 03:10:09;;;;;;;3.15;2.67;;;;;;;5.26;100.00;98156.47;5052597;28;20556;-57
2023/12/08 03:12:35;;;;;;;2.90;2.70;;;;;;;4.95;100.00;98103.34;5052531;28;20591;-57
2023/12/08 03:15:00;;;;;;;3.17;2.88;;;;;;;5.57;100.00;98183.00;5052445;28;20236;-57
2023/12/08 03:17:26;;;;;;;3.70;3.40;;;;;;;5.51;100.00;98187.63;5052340;28;20231;-57
2023/12/08 03:19:51;;;;;;;2.63;2.42;;;;;;;4.98;100.00;98110.91;5052470;28;20173;-57
2023/12/08 03:22:17;;;;;;;2.40;2.13;;;;;;;5.46;100.00;98190.44;5052353;28;20170;-57
2023/12/08 03:24:42;;;;;;;1.80;1.70;;;;;;;5.29;100.00;98167.38;5052366;28;20225;-57
2023/12/08 03:27:08;;;;;;;1.80;1.70;;;;;;;4.99;100.00;98119.41;5052170;28;20174;-58
2023/12/08 03:29:33;;;;;;;2.08;1.92;;;;;;;5.35;100.00;98174.75;5052165;28;20216;-57
2023/12/08 03:31:58;;;;;;;2.05;1.95;;;;;;;5.54;100.00;98198.56;5052176;28;20185;-57
2023/12/08 03:34:24;;;;;;;1.90;1.80;;;;;;;5.46;100.00;98199.84;5052088;28;20180;-57
2023/12/08 03:36:49;;;;;;;2.22;2.10;;;;;;;5.26;100.00;98159.84;5052070;28;20185;-57
2023/12/08 03:39:15;;;;;;;1.77;1.67;;;;;;;5.37;100.00;98190.09;5052067;28;20265;-57
2023/12/08 03:41:40;;;;;;;2.00;1.90;;;;;;;5.13;100.00;98151.13;5051922;28;20266;-57
2023/12/08 03:44:06;;;;;;;1.95;1.85;;;;;;;5.40;100.00;98187.34;5051854;28;20222;-57
2023/12/08 03:46:31;;;;;;;2.22;2.13;;;;;;;4.96;100.00;98107.56;5051597;28;20265;-58
2023/12/08 03:48:57;;;;;;;2.00;1.90;;;;;;;5.03;100.00;98102.97;5049241;28;20272;-57
2023/12/08 03:51:22;;;;;;;2.03;1.88;;;;;;;5.08;100.00;98132.56;5049289;28;20243;-57
2023/12/08 03:53:48;;;;;;;2.05;1.95;;;;;;;5.31;100.00;98155.28;5049259;28;20182;-57
2023/12/08 03:56:14;;;;;;;2.00;1.90;;;;;;;4.96;100.00;98110.13;5048716;28;20186;-57
2023/12/08 03:58:39;;;;;;;2.35;2.25;;;;;;;5.41;100.00;98194.13;5049243;28;20182;-57
2023/12/08 04:01:05;;;;;;;6.65;5.97;;;;;;;5.40;100.00;98193.31;5049219;28;20182;-57
2023/12/08 04:03:30;;;;;;;2.75;2.55;;;;;;;5.43;100.00;98197.47;5049218;28;20208;-57
2023/12/08 04:05:56;;;;;;;3.15;2.47;;;;;;;5.30;100.00;98197.25;5049089;28;20688;-57
2023/12/08 04:08:21;;;;;;;3.05;2.78;;;;;;;4.94;100.00;98140.16;5049066;28;20194;-57
2023/12/08 04:10:47;;;;;;;3.00;2.80;;;;;;;5.14;100.00;98180.97;5049084;28;20182;-57
2023/12/08 04:13:12;;;;;;;3.67;3.38;;;;;;;5.04;100.00;98125.97;5049068;28;20184;-57
2023/12/08 04:15:38;;;;;;;3.63;3.33;;;;;;;5.28;100.00;98176.00;5048689;28;20189;-57
2023/12/08 04:18:04;;;;;;;4.00;3.70;;;;;;;4.95;100.00;98108.47;5048856;28;20602;-57
2023/12/08 04:20:32;;;;;;;3.97;3.67;;;;;;;5.67;100.00;98214.16;5050468;28;20182;-57
2023/12/08 04:22:58;;;;;;;4.57;4.18;;;;;;;5.35;100.00;98143.97;5051292;28;20251;-57
2023/12/08 04:25:23;;;;;;;5.15;4.65;;;;;;;5.81;100.00;98212.56;5051237;28;20209;-57
2023/12/08 04:27:48;;;;;;;6.45;4.72;;;;;;;5.31;100.00;98114.25;5048720;28;20584;-57
2023/12/08 04:30:14;;;;;;;5.57;4.45;;;;;;;5.44;100.00;98133.25;5048864;28;20269;-57
2023/12/08 04:32:39;;;;;;;5.63;4.80;;;;;;;5.78;100.00;98192.13;5048852;28;20681;-57
2023/12/08 04:35:05;;;;;;;6.47;4.40;;;;;;;5.68;100.00;98180.72;5049141;28;20193;-57
2023/12/08 04:37:31;;;;;;;9.88;5.82;;;;;;;5.82;100.00;98203.94;5048741;28;20209;-57
2023/12/08 04:39:57;;;;;;;6.50;5.22;;;;;;;5.67;100.00;98173.09;5048715;28;20311;-57
2023/12/08 04:42:22;;;;;;;7.25;5.93;;;;;;;5.86;100.00;98208.00;5068578;28;20185;-57
2023/12/08 04:44:47;;;;;;;5.68;5.10;;;;;;;5.37;100.00;98119.06;5068194;28;20216;-57
2023/12/08 04:47:13;;;;;;;4.85;4.38;;;;;;;5.60;100.00;98164.88;5068679;28;20215;-57
2023/12/08 04:49:38;;;;;;;4.82;4.43;;;;;;;5.79;100.00;98193.81;5068732;28;20184;-57
2023/12/08 04:52:04;;;;;;;8.75;6.93;;;;;;;5.87;100.00;98206.25;5068629;28;20185;-57
2023/12/08 04:54:29;;;;;;;10.32;6.97;;;;;;;5.54;100.00;98162.63;5068700;28;20204;-57
2023/12/08 04:56:55;;;;;;;11.15;6.80;;;;;;;5.22;100.00;98116.47;5068255;28;20570;-57
2023/12/08 04:59:20;;;;;;;8.95;4.80;;;;;;;5.54;100.00;98161.81;5068331;28;20239;-57
2023/12/08 05:01:50;;;;;;;5.55;4.82;;;;;;;5.73;100.00;98180.47;5068851;28;20208;-57
2023/12/08 05:04:17;;;;;;;5.07;4.57;;;;;;;5.42;100.00;98129.13;5068399;28;20782;-57
2023/12/08 05:06:43;;;;;;;6.57;5.80;;;;;;;5.61;100.00;98150.31;5068580;28;20177;-57
2023/12/08 05:09:10;;;;;;;8.82;7.22;;;;;;;5.76;100.00;98172.63;5070375;28;20212;-57
2023/12/08 05:11:36;;;;;;;5.85;5.25;;;;;;;5.71;100.00;98198.50;5072250;28;20212;-57
2023/12/08 05:14:02;;;;;;;4.68;4.13;;;;;;;5.66;100.00;98221.00;5058337;28;20220;-57
2023/12/08 05:16:28;;;;;;;4.97;4.50;;;;;;;5.23;100.00;98175.41;5052091;28;20186;-57
2023/12/08 05:18:54;;;;;;;4.90;4.50;;;;;;;5.52;100.00;98220.91;5051930;28;20805;-57
2023/12/08 05:21:19;;;;;;;4.72;4.25;;;;;;;5.03;100.00;98162.78;5052211;28;20190;-57
2023/12/08 05:23:45;;;;;;;5.22;4.70;;;;;;;4.81;100.00;98169.84;5052038;28;20178;-57
2023/12/08 05:26:10;;;;;;;4.70;4.22;;;;;;;5.12;100.00;98236.66;5052136;28;20213;-58
2023/12/08 05:28:36;;;;;;;4.55;4.15;;;;;;;4.53;100.00;98133.69;5052049;28;20208;-57
2023/12/08 05:31:04;;;;;;;4.35;3.95;;;;;;;4.99;100.00;98219.38;5051927;28;20193;-57
2023/12/08 05:33:29;;;;;;;4.93;4.45;;;;;;;4.83;100.00;98200.53;5051946;28;20771;-57
2023/12/08 05:35:55;;;;;;;5.30;4.80;;;;;;;4.54;100.00;98119.97;5051840;28;20229;-57
2023/12/08 05:38:21;;;;;;;4.28;3.92;;;;;;;4.86;100.00;98144.84;5051777;28;20220;-57
2023/12/08 05:40:46;;;;;;;5.32;4.82;;;;;;;5.40;100.00;98208.72;5051877;28;20221;-57
2023/12/08 05:43:12;;;;;;;6.15;4.97;;;;;;;5.09;100.00;98149.63;5051874;28;20284;-57
2023/12/08 05:45:37;;;;;;;5.82;4.97;;;;;;;4.96;100.00;98130.63;5051653;28;20327;-57
2023/12/08 05:48:04;;;;;;;5.45;4.95;;;;;;;5.16;100.00;98134.75;5053232;28;20190;-57
2023/12/08 05:50:30;;;;;;;6.57;4.60;;;;;;;5.17;100.00;98137.25;5054063;28;20254;-57
2023/12/08 05:52:55;;;;;;;5.68;4.78;;;;;;;5.12;100.00;98138.41;5054271;28;20268;-57
2023/12/08 05:55:21;;;;;;;8.60;6.47;;;;;;;5.48;100.00;98185.22;5054009;28;20240;-57
2023/12/08 05:57:46;;;;;;;7.15;5.80;;;;;;;5.39;100.00;98189.09;5053876;28;20717;-57
2023/12/08 06:00:12;;;;;;;7.50;4.78;;;;;;;5.51;100.00;98187.63;5053880;28;20661;-57
2023/12/08 06:02:38;;;;;;;5.50;4.85;;;;;;;5.09;100.00;98141.94;5054172;28;20713;-57
2023/12/08 06:05:04;;;;;;;5.07;4.57;;;;;;;5.25;100.00;98176.13;5053881;28;20287;-57
2023/12/08 06:07:29;;;;;;;5.65;4.78;;;;;;;5.62;100.00;98242.63;5053718;28;20178;-57
2023/12/08 06:09:55;;;;;;;6.55;5.43;;;;;;;5.46;100.00;98221.22;5053409;28;20652;-57
2023/12/08 06:12:20;;;;;;;6.20;5.32;;;;;;;5.29;100.00;98225.53;5053733;28;20332;-57
2023/12/08 06:14:46;;;;;;;5.82;5.28;;;;;;;4.91;100.00;98163.34;5053625;28;20255;-57
2023/12/08 06:17:11;;;;;;;9.65;6.30;;;;;;;5.51;100.00;98239.78;5053464;28;20177;-57
2023/12/08 06:19:38;;;;;;;6.68;5.97;;;;;;;5.72;100.00;98246.34;5053231;28;20205;-57
2023/12/08 06:22:03;;;;;;;8.48;6.35;;;;;;;5.03;100.00;98167.91;5053498;28;20189;-58
2023/12/08 06:24:29;;;;;;;6.25;5.30;;;;;;;5.40;100.00;98208.72;5053408;28;20202;-57
2023/12/08 06:26:54;;;;;;;6.78;4.70;;;;;;;5.47;100.00;98211.81;5053414;28;20201;-57
2023/12/08 06:29:20;;;;;;;6.35;5.75;;;;;;;5.27;100.00;98176.06;5053371;28;20173;-57
2023/12/08 06:31:46;;;;;;;6.90;4.90;;;;;;;5.67;100.00;98240.66;5053241;28;20643;-57
2023/12/08 06:34:11;;;;;;;6.38;5.47;;;;;;;5.61;100.00;98212.75;5053273;28;20644;-57
2023/12/08 06:36:46;;;;;;;5.85;5.30;;;;;;;5.47;100.00;98184.38;5053231;28;20177;-57
2023/12/08 06:39:18;;;;;;;7.60;5.80;;;;;;;5.75;100.00;98223.13;5053230;28;20173;-57
2023/12/08 06:41:44;;;;;;;4.80;4.35;;;;;;;5.99;100.00;98278.34;5053209;28;20243;-57
2023/12/08 06:44:10;;;;;;;7.18;4.82;;;;;;;6.00;100.00;98292.03;5053028;28;20621;-57
2023/12/08 06:46:35;;;;;;;5.00;4.50;;;;;;;5.67;100.00;98248.38;5053084;28;20177;-57
2023/12/08 06:49:01;;;;;;;5.15;4.70;;;;;;;5.41;100.00;98200.09;5052708;28;20546;-57
2023/12/08 06:51:27;;;;;;;6.15;5.53;;;;;;;5.85;100.00;98280.81;5052648;28;20640;-57
2023/12/08 06:53:53;;;;;;;6.25;5.38;;;;;;;5.50;100.00;98222.72;5052927;28;20170;-57
2023/12/08 06:56:18;;;;;;;6.47;5.13;;;;;;;5.33;100.00;98194.53;5052516;28;20186;-57
2023/12/08 06:58:44;;;;;;;5.63;4.97;;;;;;;5.88;100.00;98288.34;5052495;28;20170;-57
2023/12/08 07:01:10;;;;;;;5.65;4.65;;;;;;;5.51;100.00;98244.91;5052773;28;20181;-57
2023/12/08 07:03:35;;;;;;;6.30;5.70;;;;;;;5.81;100.00;98274.16;5044605;28;20187;-57
2023/12/08 07:06:01;;;;;;;5.95;5.35;;;;;;;5.93;100.00;98288.94;5049200;28;20205;-57
2023/12/08 07:08:26;;;;;;;5.75;5.07;;;;;;;5.94;100.00;98279.50;5052410;28;20170;-57
2023/12/08 07:10:51;;;;;;;6.35;5.53;;;;;;;5.91;100.00;98277.94;5052353;28;20204;-57
2023/12/08 07:13:17;;;;;;;6.13;4.93;;;;;;;5.74;100.00;98252.25;5052286;28;20611;-57
2023/12/08 07:15:42;;;;;;;5.28;4.72;;;;;;;5.24;100.00;98156.53;5052309;28;20189;-57
2023/12/08 07:18:08;;;;;;;6.68;5.72;;;;;;;5.47;100.00;98192.09;5052226;28;20678;-57
2023/12/08 07:20:34;;;;;;;5.65;5.15;;;;;;;5.67;100.00;98234.69;5051932;28;20209;-57
2023/12/08 07:22:59;;;;;;;6.10;4.90;;;;;;;5.46;100.00;98205.81;5052127;28;20196;-57
2023/12/08 07:25:25;;;;;;;5.00;4.50;;;;;;;5.70;100.00;98230.22;5052056;28;20197;-57
2023/12/08 07:27:51;;;;;;;5.25;4.68;;;;;;;5.75;100.00;98228.25;5049309;28;20576;-57
2023/12/08 07:30:17;;;;;;;6.40;4.55;;;;;;;5.42;100.00;98212.00;5049617;28;20277;-57
2023/12/08 07:32:43;;;;;;;22.85;14.63;;;;;;;5.80;100.00;98253.69;5048691;28;20561;-57
2023/12/08 07:35:08;;;;;;;7.18;5.65;;;;;;;5.89;100.00;98250.66;5049386;28;20621;-57
2023/12/08 07:37:38;;;;;;;3.85;3.55;;;;;;;5.65;100.00;98201.41;5049371;28;20196;-57
2023/12/08 07:40:05;;;;;;;7.53;5.90;;;;;;;5.74;100.00;98229.16;5049362;28;20181;-57
2023/12/08 07:42:30;;;;;;;8.75;5.90;;;;;;;5.47;100.00;98192.09;5049197;28;20247;-57
2023/12/08 07:44:56;;;;;;;5.60;4.78;;;;;;;5.88;100.00;98247.25;5049239;28;20209;-58
2023/12/08 07:47:21;;;;;;;5.47;4.97;;;;;;;6.17;100.00;98295.34;5049522;28;20212;-56
2023/12/08 07:49:47;;;;;;;5.78;4.85;;;;;;;5.98;100.00;98265.56;5049144;28;20182;-56
2023/12/08 07:52:14;;;;;;;5.25;4.75;;;;;;;5.88;100.00;98219.03;5049165;28;20186;-56
2023/12/08 07:54:39;;;;;;;6.47;4.95;;;;;;;5.94;100.00;98215.31;5049057;28;20731;-57
2023/12/08 07:57:05;;;;;;;4.82;3.92;;;;;;;6.11;100.00;98246.88;5049079;28;20188;-58
2023/12/08 07:59:30;;;;;;;4.20;3.90;;;;;;;6.28;100.00;98266.50;5050653;28;20603;-56
2023/12/08 08:01:56;;;;;;;3.63;3.42;;;;;;;6.05;100.00;98228.38;5051426;28;20185;-56
2023/12/08 08:04:21;;;;;;;3.45;3.15;;;;;;;6.04;100.00;98219.88;5051091;28;20288;-56
2023/12/08 08:06:47;;;;;;;3.53;3.20;;;;;;;6.61;100.00;98314.38;5051336;28;20198;-57
2023/12/08 08:09:13;;;;;;;3.55;3.25;;;;;;;5.76;100.00;98165.72;5051258;28;20227;-57
2023/12/08 08:11:38;;;;;;;3.30;3.00;;;;;;;6.73;100.00;98318.00;5051640;28;20174;-57
2023/12/08 08:14:03;;;;;;;3.40;3.13;;;;;;;6.51;100.00;98276.38;5051199;28;20170;-57
2023/12/08 08:16:29;;;;;;;3.90;3.50;;;;;;;6.68;100.00;98315.69;5051226;28;20178;-57
2023/12/08 08:18:54;;;;;;;3.63;3.33;;;;;;;6.32;100.00;98266.28;5050783;28;20248;-57
2023/12/08 08:21:20;;;;;;;4.82;4.07;;;;;;;6.13;100.00;98242.47;5051187;28;20189;-57
2023/12/08 08:23:45;;;;;;;4.82;4.30;;;;;;;6.24;100.00;98265.03;5051157;28;20174;-57
2023/12/08 08:26:11;;;;;;;5.90;5.07;;;;;;;6.71;100.00;98335.28;5051055;28;20697;-57
2023/12/08 08:28:36;;;;;;;4.18;3.83;;;;;;;6.64;100.00;98327.03;5050823;28;20671;-57
2023/12/08 08:31:02;;;;;;;4.18;3.78;;;;;;;6.24;100.00;98250.44;5051069;28;20174;-57
2023/12/08 08:33:27;;;;;;;4.10;3.70;;;;;;;6.29;100.00;98245.88;5050757;28;20680;-57
2023/12/08 08:35:53;;;;;;;4.28;3.88;;;;;;;6.46;100.00;98279.22;5050989;28;20177;-57
2023/12/08 08:38:18;;;;;;;5.45;4.93;;;;;;;6.21;100.00;98248.06;5050974;28;20174;-57
2023/12/08 08:40:43;;;;;;;5.88;5.30;;;;;;;6.61;100.00;98329.78;5051221;28;20173;-57
2023/12/08 08:43:09;;;;;;;9.70;5.70;;;;;;;6.63;100.00;98321.97;5053025;28;20249;-57
2023/12/08 08:45:35;;;;;;;6.50;5.78;;;;;;;6.75;100.00;98322.16;5054708;28;20209;-58
2023/12/08 08:48:01;;;;;;;7.45;5.63;;;;;;;6.42;100.00;98267.44;5052395;28;20196;-57
2023/12/08 08:50:26;;;;;;;7.68;6.05;;;;;;;6.59;100.00;98290.47;5052478;28;20225;-58
2023/12/08 08:52:52;;;;;;;6.60;5.25;;;;;;;6.66;100.00;98288.41;5052542;28;20608;-58
2023/12/08 08:55:17;;;;;;;5.68;5.15;;;;;;;6.77;100.00;98294.59;5052549;28;20662;-58
2023/12/08 08:57:44;;;;;;;6.05;5.40;;;;;;;6.92;100.00;98329.78;5052172;28;20668;-57
2023/12/08 09:00:12;;;;;;;9.18;7.63;;;;;;;6.72;100.00;98298.34;5052362;28;20185;-57
2023/12/08 09:02:38;;;;;;;6.72;5.97;;;;;;;6.46;100.00;98245.00;5052166;28;20627;-57
2023/12/08 09:05:05;;;;;;;8.82;7.90;;;;;;;6.52;100.00;98258.31;5052030;28;20260;-57
2023/12/08 09:07:30;;;;;;;7.72;6.60;;;;;;;6.55;100.00;98247.88;5052218;28;20227;-58
2023/12/08 09:09:57;;;;;;;11.35;8.00;;;;;;;6.57;100.00;98238.34;5052224;28;20583;-58
2023/12/08 09:12:22;;;;;;;11.18;8.85;;;;;;;7.16;100.00;98330.16;5052170;28;20332;-56
2023/12/08 09:14:48;;;;;;;11.13;8.20;;;;;;;6.76;100.00;98262.09;5051950;28;20292;-57
2023/12/08 09:17:13;;;;;;;7.93;6.50;;;;;;;7.13;100.00;98330.31;5051982;28;20252;-57
2023/12/08 09:19:39;;;;;;;9.57;7.28;;;;;;;6.97;100.00;98314.91;5053698;28;20204;-58
2023/12/08 09:22:05;;;;;;;6.32;5.38;;;;;;;6.48;100.00;98218.25;5054426;28;20184;-57
2023/12/08 09:24:31;;;;;;;8.18;7.07;;;;;;;7.08;100.00;98320.31;5054374;28;20202;-57
2023/12/08 09:26:56;;;;;;;6.53;5.93;;;;;;;6.90;100.00;98294.75;5054454;28;20185;-57
2023/12/08 09:29:22;;;;;;;6.07;5.45;;;;;;;6.98;100.00;98308.00;5054384;28;20178;-57
2023/12/08 09:31:48;;;;;;;6.88;6.10;;;;;;;6.92;100.00;98300.63;5054173;28;20177;-58
2023/12/08 09:34:13;;;;;;;5.88;5.38;;;;;;;7.00;100.00;98301.88;5054237;28;20264;-58
2023/12/08 09:36:38;;;;;;;4.70;4.30;;;;;;;6.98;100.00;98298.56;5049645;28;20186;-58
2023/12/08 09:39:04;;;;;;;6.50;5.72;;;;;;;7.06;100.00;98295.56;5034192;28;20181;-58
2023/12/08 09:41:30;;;;;;;6.30;5.70;;;;;;;6.84;100.00;98270.25;5033950;28;20304;-58
2023/12/08 09:44:15;;;;;;;7.40;5.70;;;;;;;7.00;100.00;98296.72;5034251;28;20182;-57
2023/12/08 09:46:44;;;;;;;5.57;5.18;;;;;;;6.98;100.00;98288.28;5034060;28;20667;-58
2023/12/08 09:49:44;;;;;;;5.13;4.63;;;;;;;7.05;100.00;98289.59;5033774;28;20532;-58
2023/12/08 09:52:14;;;;;;;5.30;4.80;;;;;;;6.71;100.00;98235.81;5009490;28;20302;-58
2023/12/08 09:54:40;;;;;;;5.70;5.03;;;;;;;6.77;100.00;98237.22;5010933;28;20683;-58
2023/12/08 09:57:09;;;;;;;5.80;5.20;;;;;;;7.02;100.00;98278.66;5011852;28;20191;-58
2023/12/08 09:59:37;;;;;;;6.50;5.50;;;;;;;7.05;100.00;98278.50;5012047;28;20179;-58
2023/12/08 10:02:03;;;;;;;6.28;5.68;;;;;;;7.01;100.00;98284.72;5028322;28;20198;-58
2023/12/08 10:04:29;;;;;;;6.82;5.80;;;;;;;7.08;100.00;98288.59;5031112;28;20218;-58
2023/12/08 10:06:58;;;;;;;6.63;6.03;;;;;;;6.61;100.00;98198.72;5031179;28;20193;-58
2023/12/08 10:09:26;;;;;;;6.68;5.70;;;;;;;7.08;100.00;98271.44;5031164;28;20183;-58
2023/12/08 10:11:51;;;;;;;6.57;5.93;;;;;;;7.23;100.00;98275.69;5031367;28;20186;-58
2023/12/08 10:14:18;;;;;;;8.65;7.30;;;;;;;6.81;100.00;98213.00;5031067;28;20781;-58
2023/12/08 10:16:46;;;;;;;7.50;6.63;;;;;;;6.93;100.00;98223.41;5030973;28;20186;-58
2023/12/08 10:19:11;;;;;;;6.80;6.13;;;;;;;7.01;100.00;98220.41;5030830;28;20233;-58
2023/12/08 10:21:37;;;;;;;6.43;5.68;;;;;;;7.23;100.00;98255.09;5030943;28;20191;-58
2023/12/08 10:24:03;;;;;;;8.82;7.10;;;;;;;6.62;100.00;98166.09;5047123;28;20201;-58
2023/12/08 10:26:30;;;;;;;10.23;8.05;;;;;;;6.67;100.00;98159.81;5050666;28;20178;-58
2023/12/08 10:28:57;;;;;;;8.65;7.28;;;;;;;7.17;100.00;98246.91;5050773;28;20231;-58
2023/12/08 10:31:23;;;;;;;6.93;6.22;;;;;;;7.23;100.00;98255.09;5010749;28;20184;-58
2023/12/08 10:33:49;;;;;;;8.05;6.75;;;;;;;6.93;100.00;98210.56;5027179;28;20237;-58
2023/12/08 10:36:15;;;;;;;10.45;8.48;;;;;;;7.03;100.00;98226.28;5030562;28;20193;-57
2023/12/08 10:38:41;;;;;;;7.65;6.35;;;;;;;6.79;100.00;98169.38;5030635;28;20182;-58
2023/12/08 10:41:10;;;;;;;7.60;6.57;;;;;;;7.00;100.00;98222.13;5029612;28;20195;-58
2023/12/08 10:43:39;;;;;;;6.97;5.90;;;;;;;6.69;100.00;98163.09;5030591;28;20193;-58
2023/12/08 10:46:05;;;;;;;7.38;6.28;;;;;;;6.94;100.00;98198.53;5030296;28;20719;-58
2023/12/08 10:48:32;;;;;;;7.55;6.70;;;;;;;7.20;100.00;98232.13;5030771;28;20190;-58
2023/12/08 10:50:58;;;;;;;8.40;7.28;;;;;;;6.96;100.00;98176.13;5030438;28;20281;-58
2023/12/08 10:53:25;;;;;;;7.15;6.07;;;;;;;7.00;100.00;98170.69;5030380;28;20268;-57
2023/12/08 10:56:26;;;;;;;7.90;6.72;;;;;;;7.19;100.00;98230.47;5010232;28;20195;-58
2023/12/08 10:58:58;;;;;;;9.88;7.68;;;;;;;6.91;100.00;98184.09;4971345;28;20192;-58
2023/12/08 11:01:25;;;;;;;11.68;8.23;;;;;;;6.67;100.00;98131.53;4971356;28;20197;-58
2023/12/08 11:03:57;;;;;;;10.02;8.30;;;;;;;7.30;100.00;98222.97;4971401;28;20195;-58
2023/12/08 11:06:28;;;;;;;11.85;9.35;;;;;;;7.17;100.00;98196.28;4971181;28;20354;-57
2023/12/08 11:08:56;;;;;;;11.80;9.48;;;;;;;7.20;100.00;98197.84;4971366;28;20193;-58
2023/12/08 11:11:26;;;;;;;11.48;10.00;;;;;;;7.37;100.00;98226.00;4971292;28;20257;-58
2023/12/08 11:14:04;;;;;;;13.35;10.35;;;;;;;6.47;100.00;98080.41;4971203;28;20280;-58
2023/12/08 11:16:48;;;;;;;12.45;10.57;;;;;;;7.45;100.00;98216.91;4971205;28;20701;-58
2023/12/08 11:19:14;;;;;;;13.45;10.48;;;;;;;7.03;100.00;98157.69;4970896;28;20222;-58
2023/12/08 11:21:41;;;;;;;12.75;10.20;;;;;;;7.15;100.00;98164.69;4971081;28;20220;-58
2023/12/08 11:24:08;;;;;;;13.65;10.30;;;;;;;7.22;100.00;98193.47;4970957;28;20176;-58
2023/12/08 11:26:45;;;;;;;14.15;10.20;;;;;;;7.12;100.00;98175.13;4978325;28;20282;-58